sensor_id;sensor_type;location;lat;lon;timestamp;pressure;altitude;pressure_sealevel;temperature;humidity
67931;BME280;63902;52.000;5.954;2023-01-23T00:00:00;103122.47;;;-0.03;100.00
67931;BME280;63902;52.000;5.954;2023-01-23T00:01:02;103122.53;;;-0.02;100.00
67931;BME280;63902;52.000;5.954;2023-01-23T00:02:03;103113.72;;;-0.05;100.00
67931;BME280;63902;52.000;5.954;2023-01-23T00:03:03;103122.63;;;0.00;100.00
67931;BME280;63902;52.000;5.954;2023-01-23T00:04:04;103122.63;;;0.00;100.00
67931;BME280;63902;52.000;5.954;2023-01-23T00:05:05;103122.63;;;0.00;100.00
67931;BME280;63902;52.000;5.954;2023-01-23T00:06:08;103124.31;;;-0.01;100.00
67931;BME280;63902;52.000;5.954;2023-01-23T00:07:10;103123.38;;;-0.03;100.00
67931;BME280;63902;52.000;5.954;2023-01-23T00:08:12;103120.00;;;0.00;100.00
67931;BME280;63902;52.000;5.954;2023-01-23T00:09:12;103126.03;;;-0.01;100.00
67931;BME280;63902;52.000;5.954;2023-01-23T00:10:13;103120.78;;;-0.03;100.00
67931;BME280;63902;52.000;5.954;2023-01-23T00:11:17;103122.34;;;-0.06;100.00
67931;BME280;63902;52.000;5.954;2023-01-23T00:12:18;103123.44;;;-0.01;100.00
67931;BME280;63902;52.000;5.954;2023-01-23T00:13:18;103126.88;;;-0.02;100.00
67931;BME280;63902;52.000;5.954;2023-01-23T00:14:19;103116.44;;;-0.02;100.00
67931;BME280;63902;52.000;5.954;2023-01-23T00:15:19;103120.81;;;-0.01;100.00
67931;BME280;63902;52.000;5.954;2023-01-23T00:16:21;103113.00;;;-0.01;100.00
67931;BME280;63902;52.000;5.954;2023-01-23T00:17:23;103101.38;;;-0.09;100.00
67931;BME280;63902;52.000;5.954;2023-01-23T00:18:24;103119.09;;;-0.01;100.00
67931;BME280;63902;52.000;5.954;2023-01-23T00:19:24;103106.06;;;-0.01;100.00
67931;BME280;63902;52.000;5.954;2023-01-23T00:20:25;103114.72;;;-0.02;100.00
67931;BME280;63902;52.000;5.954;2023-01-23T00:21:27;103109.38;;;-0.05;100.00
67931;BME280;63902;52.000;5.954;2023-01-23T00:22:28;103117.31;;;-0.02;100.00
67931;BME280;63902;52.000;5.954;2023-01-23T00:23:30;103106.81;;;-0.03;100.00
67931;BME280;63902;52.000;5.954;2023-01-23T00:24:30;103105.78;;;-0.08;100.00
67931;BME280;63902;52.000;5.954;2023-01-23T00:25:32;103120.81;;;-0.01;100.00
67931;BME280;63902;52.000;5.954;2023-01-23T00:26:33;103116.44;;;-0.02;100.00
67931;BME280;63902;52.000;5.954;2023-01-23T00:27:34;103118.16;;;-0.03;100.00
67931;BME280;63902;52.000;5.954;2023-01-23T00:28:34;103117.22;;;-0.05;100.00
67931;BME280;63902;52.000;5.954;2023-01-23T00:29:35;103121.59;;;-0.04;100.00
67931;BME280;63902;52.000;5.954;2023-01-23T00:30:35;103129.47;;;-0.02;100.00
67931;BME280;63902;52.000;5.954;2023-01-23T00:31:37;103119.84;;;-0.03;100.00
67931;BME280;63902;52.000;5.954;2023-01-23T00:32:38;103128.59;;;-0.03;100.00
67931;BME280;63902;52.000;5.954;2023-01-23T00:33:39;103134.72;;;-0.02;100.00
67931;BME280;63902;52.000;5.954;2023-01-23T00:34:39;103132.91;;;-0.03;100.00
67931;BME280;63902;52.000;5.954;2023-01-23T00:35:40;103135.50;;;-0.03;100.00
67931;BME280;63902;52.000;5.954;2023-01-23T00:36:42;103127.69;;;-0.03;100.00
67931;BME280;63902;52.000;5.954;2023-01-23T00:37:43;103132.91;;;-0.03;100.00
67931;BME280;63902;52.000;5.954;2023-01-23T00:38:45;103129.38;;;-0.05;100.00
67931;BME280;63902;52.000;5.954;2023-01-23T00:39:45;103139.03;;;-0.03;100.00
67931;BME280;63902;52.000;5.954;2023-01-23T00:40:45;103131.97;;;-0.05;100.00
67931;BME280;63902;52.000;5.954;2023-01-23T00:41:47;103140.69;;;-0.05;100.00
67931;BME280;63902;52.000;5.954;2023-01-23T00:42:47;103135.47;;;-0.05;100.00
67931;BME280;63902;52.000;5.954;2023-01-23T00:43:48;103139.91;;;-0.02;100.00
67931;BME280;63902;52.000;5.954;2023-01-23T00:44:48;103139.91;;;-0.02;100.00
67931;BME280;63902;52.000;5.954;2023-01-23T00:45:49;103137.25;;;-0.04;100.00
67931;BME280;63902;52.000;5.954;2023-01-23T00:46:50;103138.19;;;-0.02;100.00
67931;BME280;63902;52.000;5.954;2023-01-23T00:47:50;103139.09;;;-0.01;100.00
67931;BME280;63902;52.000;5.954;2023-01-23T00:48:51;103138.97;;;-0.04;100.00
67931;BME280;63902;52.000;5.954;2023-01-23T00:49:51;103141.69;;;-0.01;100.00
67931;BME280;63902;52.000;5.954;2023-01-23T00:50:52;103138.28;;;0.00;100.00
67931;BME280;63902;52.000;5.954;2023-01-23T00:51:53;103142.56;;;-0.01;100.00
67931;BME280;63902;52.000;5.954;2023-01-23T00:52:53;103135.59;;;-0.02;100.00
67931;BME280;63902;52.000;5.954;2023-01-23T00:53:55;103135.59;;;-0.02;100.00
67931;BME280;63902;52.000;5.954;2023-01-23T00:54:56;103133.88;;;-0.01;100.00
67931;BME280;63902;52.000;5.954;2023-01-23T00:55:56;103132.09;;;-0.02;100.00
67931;BME280;63902;52.000;5.954;2023-01-23T00:56:57;103129.28;;;-0.07;100.00
67931;BME280;63902;52.000;5.954;2023-01-23T00:57:57;103137.34;;;-0.01;100.00
67931;BME280;63902;52.000;5.954;2023-01-23T00:58:58;103138.28;;;0.00;100.00
67931;BME280;63902;52.000;5.954;2023-01-23T00:59:58;103133.88;;;-0.01;100.00
67931;BME280;63902;52.000;5.954;2023-01-23T01:00:59;103125.91;;;-0.04;100.00
67931;BME280;63902;52.000;5.954;2023-01-23T01:01:59;103129.47;;;-0.02;100.00
67931;BME280;63902;52.000;5.954;2023-01-23T01:03:00;103133.88;;;-0.01;100.00
67931;BME280;63902;52.000;5.954;2023-01-23T01:04:00;103123.38;;;-0.03;100.00
67931;BME280;63902;52.000;5.954;2023-01-23T01:05:01;103128.72;;;0.01;100.00
67931;BME280;63902;52.000;5.954;2023-01-23T01:06:02;103129.47;;;-0.02;100.00
67931;BME280;63902;52.000;5.954;2023-01-23T01:07:03;103134.81;;;0.01;100.00
67931;BME280;63902;52.000;5.954;2023-01-23T01:08:04;103134.81;;;0.01;100.00
67931;BME280;63902;52.000;5.954;2023-01-23T01:09:06;103137.44;;;0.01;100.00
67931;BME280;63902;52.000;5.954;2023-01-23T01:10:07;103125.16;;;-0.02;100.00
67931;BME280;63902;52.000;5.954;2023-01-23T01:11:08;103124.16;;;-0.05;100.00
67931;BME280;63902;52.000;5.954;2023-01-23T01:12:08;103137.44;;;0.01;100.00
67931;BME280;63902;52.000;5.954;2023-01-23T01:13:10;103132.13;;;-0.01;100.00
67931;BME280;63902;52.000;5.954;2023-01-23T01:14:11;103132.22;;;0.01;100.00
67931;BME280;63902;52.000;5.954;2023-01-23T01:15:12;103127.00;;;0.01;100.00
67931;BME280;63902;52.000;5.954;2023-01-23T01:16:12;103125.03;;;-0.05;100.00
67931;BME280;63902;52.000;5.954;2023-01-23T01:17:13;103136.47;;;-0.01;100.00
67931;BME280;63902;52.000;5.954;2023-01-23T01:18:13;103133.06;;;0.00;100.00
67931;BME280;63902;52.000;5.954;2023-01-23T01:19:15;103142.69;;;0.03;100.00
67931;BME280;63902;52.000;5.954;2023-01-23T01:20:16;103142.69;;;0.03;100.00
67931;BME280;63902;52.000;5.954;2023-01-23T01:21:17;103138.38;;;0.03;100.00
67931;BME280;63902;52.000;5.954;2023-01-23T01:22:17;103129.59;;;0.01;100.00
67931;BME280;63902;52.000;5.954;2023-01-23T01:23:18;103145.38;;;0.04;100.00
67931;BME280;63902;52.000;5.954;2023-01-23T01:24:20;103144.50;;;0.04;100.00
67931;BME280;63902;52.000;5.954;2023-01-23T01:25:21;103142.78;;;0.04;100.00
67931;BME280;63902;52.000;5.954;2023-01-23T01:26:22;103145.31;;;0.03;100.00
67931;BME280;63902;52.000;5.954;2023-01-23T01:27:22;103147.16;;;0.05;100.00
67931;BME280;63902;52.000;5.954;2023-01-23T01:28:23;103144.53;;;0.05;100.00
67931;BME280;63902;52.000;5.954;2023-01-23T01:29:23;103148.94;;;0.06;100.00
67931;BME280;63902;52.000;5.954;2023-01-23T01:30:24;103131.13;;;-0.04;100.00
67931;BME280;63902;52.000;5.954;2023-01-23T01:31:25;103144.63;;;0.07;100.00
67931;BME280;63902;52.000;5.954;2023-01-23T01:32:25;103148.09;;;0.07;100.00
67931;BME280;63902;52.000;5.954;2023-01-23T01:33:25;103148.88;;;0.05;100.00
67931;BME280;63902;52.000;5.954;2023-01-23T01:34:26;103148.88;;;0.05;100.00
67931;BME280;63902;52.000;5.954;2023-01-23T01:35:26;103128.53;;;-0.04;100.00
67931;BME280;63902;52.000;5.954;2023-01-23T01:36:27;103142.53;;;-0.02;100.00
67931;BME280;63902;52.000;5.954;2023-01-23T01:37:27;103145.31;;;0.03;100.00
67931;BME280;63902;52.000;5.954;2023-01-23T01:38:28;103150.72;;;0.07;100.00
67931;BME280;63902;52.000;5.954;2023-01-23T01:39:30;103154.28;;;0.09;100.00
67931;BME280;63902;52.000;5.954;2023-01-23T01:40:32;103154.09;;;0.05;100.00
67931;BME280;63902;52.000;5.954;2023-01-23T01:41:33;103157.69;;;0.08;100.00
67931;BME280;63902;52.000;5.954;2023-01-23T01:42:37;103154.28;;;0.09;100.00
67931;BME280;63902;52.000;5.954;2023-01-23T01:43:38;103151.69;;;0.09;100.00
67931;BME280;63902;52.000;5.954;2023-01-23T01:44:51;103149.75;;;0.05;100.00
67931;BME280;63902;52.000;5.954;2023-01-23T01:46:04;103157.69;;;0.08;100.00
67931;BME280;63902;52.000;5.954;2023-01-23T01:47:05;103146.34;;;0.06;100.00
67931;BME280;63902;52.000;5.954;2023-01-23T01:48:06;103131.13;;;-0.04;100.00
67931;BME280;63902;52.000;5.954;2023-01-23T01:49:08;103143.72;;;0.06;100.00
67931;BME280;63902;52.000;5.954;2023-01-23T01:50:10;103141.16;;;0.08;100.00
67931;BME280;63902;52.000;5.954;2023-01-23T01:51:16;103138.63;;;0.09;100.00
67931;BME280;63902;52.000;5.954;2023-01-23T01:52:18;103136.00;;;0.09;100.00
67931;BME280;63902;52.000;5.954;2023-01-23T01:53:20;103141.25;;;0.09;100.00
67931;BME280;63902;52.000;5.954;2023-01-23T01:54:25;103137.78;;;0.10;100.00
67931;BME280;63902;52.000;5.954;2023-01-23T01:55:30;103146.50;;;0.11;100.00
67931;BME280;63902;52.000;5.954;2023-01-23T01:56:35;103141.28;;;0.11;100.00
67931;BME280;63902;52.000;5.954;2023-01-23T01:57:40;103139.59;;;0.11;100.00
67931;BME280;63902;52.000;5.954;2023-01-23T01:58:44;103136.97;;;0.11;100.00
67931;BME280;63902;52.000;5.954;2023-01-23T01:59:49;103141.28;;;0.11;100.00
67931;BME280;63902;52.000;5.954;2023-01-23T02:00:50;103141.28;;;0.11;100.00
67931;BME280;63902;52.000;5.954;2023-01-23T02:01:57;103140.41;;;0.10;100.00
67931;BME280;63902;52.000;5.954;2023-01-23T02:03:00;103144.81;;;0.11;100.00
67931;BME280;63902;52.000;5.954;2023-01-23T02:04:01;103142.19;;;0.11;100.00
67931;BME280;63902;52.000;5.954;2023-01-23T02:05:04;103139.59;;;0.11;100.00
67931;BME280;63902;52.000;5.954;2023-01-23T02:06:06;103149.19;;;0.12;100.00
67931;BME280;63902;52.000;5.954;2023-01-23T02:07:10;103145.63;;;0.10;100.00
67931;BME280;63902;52.000;5.954;2023-01-23T02:08:18;103143.13;;;0.13;100.00
67931;BME280;63902;52.000;5.954;2023-01-23T02:09:24;103138.78;;;0.14;100.00
67931;BME280;63902;52.000;5.954;2023-01-23T02:10:25;103137.00;;;0.13;100.00
67931;BME280;63902;52.000;5.954;2023-01-23T02:11:27;103139.63;;;0.13;100.00
67931;BME280;63902;52.000;5.954;2023-01-23T02:12:27;103133.34;;;0.08;100.00
67931;BME280;63902;52.000;5.954;2023-01-23T02:13:30;103143.97;;;0.12;100.00
67931;BME280;63902;52.000;5.954;2023-01-23T02:14:31;103145.72;;;0.13;100.00
67931;BME280;63902;52.000;5.954;2023-01-23T02:15:32;103146.63;;;0.14;100.00
67931;BME280;63902;52.000;5.954;2023-01-23T02:16:35;103144.00;;;0.14;100.00
67931;BME280;63902;52.000;5.954;2023-01-23T02:17:36;103140.47;;;0.12;100.00
67931;BME280;63902;52.000;5.954;2023-01-23T02:18:38;103136.81;;;0.08;100.00
67931;BME280;63902;52.000;5.954;2023-01-23T02:19:44;103136.97;;;0.11;100.00
67931;BME280;63902;52.000;5.954;2023-01-23T02:20:51;103160.63;;;0.16;100.00
67931;BME280;63902;52.000;5.954;2023-01-23T02:21:58;103153.69;;;0.16;100.00
67931;BME280;63902;52.000;5.954;2023-01-23T02:23:07;103151.06;;;0.16;100.00
67931;BME280;63902;52.000;5.954;2023-01-23T02:24:16;103155.41;;;0.16;100.00
67931;BME280;63902;52.000;5.954;2023-01-23T02:25:22;103154.50;;;0.15;100.00
67931;BME280;63902;52.000;5.954;2023-01-23T02:26:29;103149.19;;;0.12;100.00
67931;BME280;63902;52.000;5.954;2023-01-23T02:27:30;103146.50;;;0.11;100.00
67931;BME280;63902;52.000;5.954;2023-01-23T02:28:38;103153.69;;;0.16;100.00
67931;BME280;63902;52.000;5.954;2023-01-23T02:29:42;103147.53;;;0.14;100.00
67931;BME280;63902;52.000;5.954;2023-01-23T02:30:44;103156.28;;;0.16;100.00
67931;BME280;63902;52.000;5.954;2023-01-23T02:31:44;103151.84;;;0.14;100.00
67931;BME280;63902;52.000;5.954;2023-01-23T02:32:45;103164.13;;;0.16;100.00
67931;BME280;63902;52.000;5.954;2023-01-23T02:33:49;103164.19;;;0.18;100.00
67931;BME280;63902;52.000;5.954;2023-01-23T02:34:50;103161.50;;;0.16;100.00
67931;BME280;63902;52.000;5.954;2023-01-23T02:35:52;103159.84;;;0.18;100.00
67931;BME280;63902;52.000;5.954;2023-01-23T02:36:53;103162.41;;;0.17;100.00
67931;BME280;63902;52.000;5.954;2023-01-23T02:37:57;103157.31;;;0.20;100.00
67931;BME280;63902;52.000;5.954;2023-01-23T02:39:04;103154.63;;;0.18;100.00
67931;BME280;63902;52.000;5.954;2023-01-23T02:40:07;103157.31;;;0.20;100.00
67931;BME280;63902;52.000;5.954;2023-01-23T02:41:09;103160.69;;;0.17;100.00
67931;BME280;63902;52.000;5.954;2023-01-23T02:42:13;103156.41;;;0.19;100.00
67931;BME280;63902;52.000;5.954;2023-01-23T02:43:16;103158.22;;;0.20;100.00
67931;BME280;63902;52.000;5.954;2023-01-23T02:44:19;103160.81;;;0.20;100.00
67931;BME280;63902;52.000;5.954;2023-01-23T02:45:20;103154.63;;;0.18;100.00
67931;BME280;63902;52.000;5.954;2023-01-23T02:46:22;103153.88;;;0.21;100.00
67931;BME280;63902;52.000;5.954;2023-01-23T02:47:23;103154.72;;;0.20;100.00
67931;BME280;63902;52.000;5.954;2023-01-23T02:48:24;103155.59;;;0.20;100.00
67931;BME280;63902;52.000;5.954;2023-01-23T02:49:24;103151.19;;;0.19;100.00
67931;BME280;63902;52.000;5.954;2023-01-23T02:50:25;103149.41;;;0.18;100.00
67931;BME280;63902;52.000;5.954;2023-01-23T02:51:25;103151.25;;;0.21;100.00
67931;BME280;63902;52.000;5.954;2023-01-23T02:52:26;103153.88;;;0.21;100.00
67931;BME280;63902;52.000;5.954;2023-01-23T02:53:26;103156.41;;;0.19;100.00
67931;BME280;63902;52.000;5.954;2023-01-23T02:54:27;103151.97;;;0.17;100.00
67931;BME280;63902;52.000;5.954;2023-01-23T02:55:27;103159.09;;;0.21;100.00
67931;BME280;63902;52.000;5.954;2023-01-23T02:56:28;103159.94;;;0.20;100.00
67931;BME280;63902;52.000;5.954;2023-01-23T02:57:30;103173.97;;;0.24;100.00
67931;BME280;63902;52.000;5.954;2023-01-23T02:58:30;103172.13;;;0.21;100.00
67931;BME280;63902;52.000;5.954;2023-01-23T02:59:30;103161.63;;;0.19;100.00
67931;BME280;63902;52.000;5.954;2023-01-23T03:00:31;103162.66;;;0.23;100.00
67931;BME280;63902;52.000;5.954;2023-01-23T03:01:31;103167.00;;;0.22;100.00
67931;BME280;63902;52.000;5.954;2023-01-23T03:02:32;103171.38;;;0.24;100.00
67931;BME280;63902;52.000;5.954;2023-01-23T03:03:32;103171.38;;;0.24;100.00
67931;BME280;63902;52.000;5.954;2023-01-23T03:04:33;103176.50;;;0.22;100.00
67931;BME280;63902;52.000;5.954;2023-01-23T03:05:33;103172.13;;;0.21;100.00
67931;BME280;63902;52.000;5.954;2023-01-23T03:06:35;103174.75;;;0.21;100.00
67931;BME280;63902;52.000;5.954;2023-01-23T03:07:36;103179.25;;;0.25;100.00
67931;BME280;63902;52.000;5.954;2023-01-23T03:08:37;103180.16;;;0.26;100.00
67931;BME280;63902;52.000;5.954;2023-01-23T03:09:37;103178.44;;;0.26;100.00
67931;BME280;63902;52.000;5.954;2023-01-23T03:10:37;103181.03;;;0.26;100.00
67931;BME280;63902;52.000;5.954;2023-01-23T03:11:40;103167.81;;;0.21;100.00
67931;BME280;63902;52.000;5.954;2023-01-23T03:12:42;103178.34;;;0.25;100.00
67931;BME280;63902;52.000;5.954;2023-01-23T03:13:43;103179.31;;;0.27;100.00
67931;BME280;63902;52.000;5.954;2023-01-23T03:14:43;103175.75;;;0.25;100.00
67931;BME280;63902;52.000;5.954;2023-01-23T03:15:44;103171.38;;;0.24;100.00
67931;BME280;63902;52.000;5.954;2023-01-23T03:16:44;103173.97;;;0.24;100.00
67931;BME280;63902;52.000;5.954;2023-01-23T03:17:45;103184.53;;;0.27;100.00
67931;BME280;63902;52.000;5.954;2023-01-23T03:18:46;103173.09;;;0.23;100.00
67931;BME280;63902;52.000;5.954;2023-01-23T03:19:46;103178.34;;;0.25;100.00
67931;BME280;63902;52.000;5.954;2023-01-23T03:20:46;103182.78;;;0.26;100.00
67931;BME280;63902;52.000;5.954;2023-01-23T03:21:47;103184.53;;;0.27;100.00
67931;BME280;63902;52.000;5.954;2023-01-23T03:22:48;103183.69;;;0.28;100.00
67931;BME280;63902;52.000;5.954;2023-01-23T03:23:48;103179.19;;;0.24;100.00
67931;BME280;63902;52.000;5.954;2023-01-23T03:24:49;103178.44;;;0.26;100.00
67931;BME280;63902;52.000;5.954;2023-01-23T03:25:49;103180.19;;;0.27;100.00
67931;BME280;63902;52.000;5.954;2023-01-23T03:26:50;103181.94;;;0.27;100.00
67931;BME280;63902;52.000;5.954;2023-01-23T03:27:52;103175.75;;;0.25;100.00
67931;BME280;63902;52.000;5.954;2023-01-23T03:28:53;103180.19;;;0.27;100.00
67931;BME280;63902;52.000;5.954;2023-01-23T03:29:53;103173.13;;;0.25;100.00
67931;BME280;63902;52.000;5.954;2023-01-23T03:30:54;103188.88;;;0.26;100.00
67931;BME280;63902;52.000;5.954;2023-01-23T03:31:54;103176.72;;;0.27;100.00
67931;BME280;63902;52.000;5.954;2023-01-23T03:32:54;103177.56;;;0.26;100.00
67931;BME280;63902;52.000;5.954;2023-01-23T03:33:55;103169.59;;;0.22;100.00
67931;BME280;63902;52.000;5.954;2023-01-23T03:34:55;103170.59;;;0.26;100.00
67931;BME280;63902;52.000;5.954;2023-01-23T03:35:56;103167.88;;;0.23;100.00
67931;BME280;63902;52.000;5.954;2023-01-23T03:36:56;103165.25;;;0.23;100.00
67931;BME280;63902;52.000;5.954;2023-01-23T03:37:57;103169.66;;;0.24;100.00
67931;BME280;63902;52.000;5.954;2023-01-23T03:38:57;103164.22;;;0.19;100.00
67931;BME280;63902;52.000;5.954;2023-01-23T03:39:58;103168.00;;;0.26;100.00
67931;BME280;63902;52.000;5.954;2023-01-23T03:40:58;103171.47;;;0.27;100.00
67931;BME280;63902;52.000;5.954;2023-01-23T03:41:59;103156.56;;;0.22;100.00
67931;BME280;63902;52.000;5.954;2023-01-23T03:43:01;103168.88;;;0.27;100.00
67931;BME280;63902;52.000;5.954;2023-01-23T03:44:01;103153.69;;;0.16;100.00
67931;BME280;63902;52.000;5.954;2023-01-23T03:45:02;103177.56;;;0.26;100.00
67931;BME280;63902;52.000;5.954;2023-01-23T03:46:03;103175.81;;;0.26;100.00
67931;BME280;63902;52.000;5.954;2023-01-23T03:47:04;103181.03;;;0.26;100.00
67931;BME280;63902;52.000;5.954;2023-01-23T03:48:05;103178.34;;;0.25;100.00
67931;BME280;63902;52.000;5.954;2023-01-23T03:49:06;103183.56;;;0.25;100.00
67931;BME280;63902;52.000;5.954;2023-01-23T03:50:07;103188.00;;;0.26;100.00
67931;BME280;63902;52.000;5.954;2023-01-23T03:51:08;103184.53;;;0.27;100.00
67931;BME280;63902;52.000;5.954;2023-01-23T03:52:08;103188.91;;;0.28;100.00
67931;BME280;63902;52.000;5.954;2023-01-23T03:53:09;103176.72;;;0.27;100.00
67931;BME280;63902;52.000;5.954;2023-01-23T03:54:10;103170.53;;;0.25;100.00
67931;BME280;63902;52.000;5.954;2023-01-23T03:55:10;103178.31;;;0.23;100.00
67931;BME280;63902;52.000;5.954;2023-01-23T03:56:11;103177.56;;;0.26;100.00
67931;BME280;63902;52.000;5.954;2023-01-23T03:57:11;103176.50;;;0.22;100.00
67931;BME280;63902;52.000;5.954;2023-01-23T03:58:13;103186.25;;;0.26;100.00
67931;BME280;63902;52.000;5.954;2023-01-23T03:59:14;103178.25;;;0.21;100.00
67931;BME280;63902;52.000;5.954;2023-01-23T04:00:14;103173.88;;;0.20;100.00
67931;BME280;63902;52.000;5.954;2023-01-23T04:01:15;103181.94;;;0.27;100.00
67931;BME280;63902;52.000;5.954;2023-01-23T04:02:15;103186.31;;;0.28;100.00
67931;BME280;63902;52.000;5.954;2023-01-23T04:03:16;103184.63;;;0.28;100.00
67931;BME280;63902;52.000;5.954;2023-01-23T04:04:16;103181.09;;;0.28;100.00
67931;BME280;63902;52.000;5.954;2023-01-23T04:05:17;103177.56;;;0.26;100.00
67931;BME280;63902;52.000;5.954;2023-01-23T04:06:19;103167.03;;;0.24;100.00
67931;BME280;63902;52.000;5.954;2023-01-23T04:07:19;103179.25;;;0.25;100.00
67931;BME280;63902;52.000;5.954;2023-01-23T04:08:20;103181.09;;;0.28;100.00
67931;BME280;63902;52.000;5.954;2023-01-23T04:09:20;103188.09;;;0.29;100.00
67931;BME280;63902;52.000;5.954;2023-01-23T04:10:21;103183.66;;;0.26;100.00
67931;BME280;63902;52.000;5.954;2023-01-23T04:11:21;103185.41;;;0.27;100.00
67931;BME280;63902;52.000;5.954;2023-01-23T04:12:22;103185.38;;;0.26;100.00
67931;BME280;63902;52.000;5.954;2023-01-23T04:13:24;103189.84;;;0.28;100.00
67931;BME280;63902;52.000;5.954;2023-01-23T04:14:25;103188.91;;;0.28;100.00
67931;BME280;63902;52.000;5.954;2023-01-23T04:15:25;103187.16;;;0.27;100.00
67931;BME280;63902;52.000;5.954;2023-01-23T04:16:26;103182.00;;;0.28;100.00
67931;BME280;63902;52.000;5.954;2023-01-23T04:17:26;103186.31;;;0.28;100.00
67931;BME280;63902;52.000;5.954;2023-01-23T04:18:27;103186.31;;;0.28;100.00
67931;BME280;63902;52.000;5.954;2023-01-23T04:19:27;103184.63;;;0.28;100.00
67931;BME280;63902;52.000;5.954;2023-01-23T04:20:28;103188.03;;;0.27;100.00
67931;BME280;63902;52.000;5.954;2023-01-23T04:21:28;103180.16;;;0.26;100.00
67931;BME280;63902;52.000;5.954;2023-01-23T04:22:29;103187.22;;;0.28;100.00
67931;BME280;63902;52.000;5.954;2023-01-23T04:23:29;103182.78;;;0.26;100.00
67931;BME280;63902;52.000;5.954;2023-01-23T04:24:30;103184.53;;;0.27;100.00
67931;BME280;63902;52.000;5.954;2023-01-23T04:25:30;103181.09;;;0.28;100.00
67931;BME280;63902;52.000;5.954;2023-01-23T04:26:31;103185.50;;;0.29;100.00
67931;BME280;63902;52.000;5.954;2023-01-23T04:27:31;103190.72;;;0.29;100.00
67931;BME280;63902;52.000;5.954;2023-01-23T04:28:33;103192.44;;;0.28;100.00
67931;BME280;63902;52.000;5.954;2023-01-23T04:29:34;103188.09;;;0.29;100.00
67931;BME280;63902;52.000;5.954;2023-01-23T04:30:34;103189.88;;;0.30;100.00
67931;BME280;63902;52.000;5.954;2023-01-23T04:31:34;103194.22;;;0.29;100.00
67931;BME280;63902;52.000;5.954;2023-01-23T04:32:35;103189.00;;;0.29;100.00
67931;BME280;63902;52.000;5.954;2023-01-23T04:33:36;103188.09;;;0.29;100.00
67931;BME280;63902;52.000;5.954;2023-01-23T04:34:36;103200.31;;;0.30;100.00
67931;BME280;63902;52.000;5.954;2023-01-23T04:35:36;103197.72;;;0.30;100.00
67931;BME280;63902;52.000;5.954;2023-01-23T04:36:37;103185.41;;;0.27;100.00
67931;BME280;63902;52.000;5.954;2023-01-23T04:37:37;103189.84;;;0.28;100.00
67931;BME280;63902;52.000;5.954;2023-01-23T04:38:38;103162.28;;;0.14;100.00
67931;BME280;63902;52.000;5.954;2023-01-23T04:39:38;103189.03;;;0.31;100.00
67931;BME280;63902;52.000;5.954;2023-01-23T04:40:39;103193.31;;;0.29;100.00
67931;BME280;63902;52.000;5.954;2023-01-23T04:41:39;103192.47;;;0.30;100.00
67931;BME280;63902;52.000;5.954;2023-01-23T04:42:40;103196.88;;;0.31;100.00
67931;BME280;63902;52.000;5.954;2023-01-23T04:43:42;103195.09;;;0.30;100.00
67931;BME280;63902;52.000;5.954;2023-01-23T04:44:42;103200.31;;;0.30;100.00
67931;BME280;63902;52.000;5.954;2023-01-23T04:45:43;103202.09;;;0.31;100.00
67931;BME280;63902;52.000;5.954;2023-01-23T04:46:43;103198.56;;;0.29;100.00
67931;BME280;63902;52.000;5.954;2023-01-23T04:47:44;103203.81;;;0.30;100.00
67931;BME280;63902;52.000;5.954;2023-01-23T04:48:45;103199.47;;;0.31;100.00
67931;BME280;63902;52.000;5.954;2023-01-23T04:49:45;103193.44;;;0.32;100.00
67931;BME280;63902;52.000;5.954;2023-01-23T04:50:46;103195.94;;;0.29;100.00
67931;BME280;63902;52.000;5.954;2023-01-23T04:51:47;103190.72;;;0.29;100.00
67931;BME280;63902;52.000;5.954;2023-01-23T04:52:48;103183.66;;;0.26;100.00
67931;BME280;63902;52.000;5.954;2023-01-23T04:53:48;103171.94;;;0.16;100.00
67931;BME280;63902;52.000;5.954;2023-01-23T04:54:48;103191.53;;;0.28;100.00
67931;BME280;63902;52.000;5.954;2023-01-23T04:55:49;103194.25;;;0.31;100.00
67931;BME280;63902;52.000;5.954;2023-01-23T04:56:49;103203.88;;;0.32;100.00
67931;BME280;63902;52.000;5.954;2023-01-23T04:57:50;103201.19;;;0.30;100.00
67931;BME280;63902;52.000;5.954;2023-01-23T04:58:52;103201.19;;;0.30;100.00
67931;BME280;63902;52.000;5.954;2023-01-23T04:59:52;103206.50;;;0.32;100.00
67931;BME280;63902;52.000;5.954;2023-01-23T05:00:53;103209.91;;;0.31;100.00
67931;BME280;63902;52.000;5.954;2023-01-23T05:01:53;103203.00;;;0.31;100.00
67931;BME280;63902;52.000;5.954;2023-01-23T05:02:54;103200.38;;;0.31;100.00
67931;BME280;63902;52.000;5.954;2023-01-23T05:03:55;103206.50;;;0.32;100.00
67931;BME280;63902;52.000;5.954;2023-01-23T05:04:56;103205.63;;;0.31;100.00
67931;BME280;63902;52.000;5.954;2023-01-23T05:05:56;103207.31;;;0.31;100.00
67931;BME280;63902;52.000;5.954;2023-01-23T05:06:57;103202.88;;;0.28;100.00
67931;BME280;63902;52.000;5.954;2023-01-23T05:07:57;103209.09;;;0.32;100.00
67931;BME280;63902;52.000;5.954;2023-01-23T05:08:58;103210.84;;;0.31;100.00
67931;BME280;63902;52.000;5.954;2023-01-23T05:09:58;103214.31;;;0.32;100.00
67931;BME280;63902;52.000;5.954;2023-01-23T05:10:59;103205.53;;;0.30;100.00
67931;BME280;63902;52.000;5.954;2023-01-23T05:12:00;103216.94;;;0.32;100.00
67931;BME280;63902;52.000;5.954;2023-01-23T05:13:00;103212.53;;;0.31;100.00
67931;BME280;63902;52.000;5.954;2023-01-23T05:14:02;103213.44;;;0.31;100.00
67931;BME280;63902;52.000;5.954;2023-01-23T05:15:03;103218.72;;;0.33;100.00
67931;BME280;63902;52.000;5.954;2023-01-23T05:16:04;103218.78;;;0.34;100.00
67931;BME280;63902;52.000;5.954;2023-01-23T05:17:05;103207.19;;;0.28;100.00
67931;BME280;63902;52.000;5.954;2023-01-23T05:18:05;103214.44;;;0.35;100.00
67931;BME280;63902;52.000;5.954;2023-01-23T05:19:06;103218.78;;;0.34;100.00